Guerneville, CA (95446)

2:03 PM PDT on August 21, 2017 (GMT -0700)
Woodland | | Change Station

Elev 76 ft 38.51 °N, 123.00 °W | Updated 10 seconds ago

Partly Cloudy
Partly Cloudy
65.7 °F
Feels Like 65.7 °F
N
0.0
Wind Variable Wind from South
Gusts 0.0 mph

Today
High -- | Low -- °F
--% Chance of Precip.
Yesterday
High -- | Low -- °F
Precip. -- in
Pressure 30.01 in
Visibility 10.0 miles
Clouds Overcast 1600 ft
Dew Point 63 °F
Humidity 90%
Rainfall 0.00 in
Snow Depth Not available.
6:31 AM 7:57 PM
New Moon, 0% visible
METAR KSTS 212053Z 21006KT 10SM OVC016 18/14 A3002 RMK AO2 SLP161 T01830144 50001
Pressure 30.01 in
Visibility 10.0 miles
Clouds Overcast 1600 ft
Dew Point 63 °F
Humidity 90%
Rainfall 0.00 in
Snow Depth Not available.
6:31 AM 7:57 PM
New Moon, 0% visible
METAR KSTS 212053Z 21006KT 10SM OVC016 18/14 A3002 RMK AO2 SLP161 T01830144 50001

Get Severe Weather Alerts

Thanks for signing up!

Be on the lookout for a verification email in your inbox.

You'll start receiving the daily forecast at 6 AM.

×

10-Day Weather Forecast

Almanac

Astronomy

Aug. 21, 2017 Rise Set
Actual Time
Civil Twilight
Nautical Twilight
Astronomical Twilight
Moon
Length of Visible Light
Length of Day
Tomorrow will be .
, % of the Moon is Illuminated

Today's Extremes

State Highs State Lows

Community

WunderPhotos

Category 6

Welcome to Category 6. This is the collective home for Weather Underground's featured writeups by Dr. Jeff Masters (right), Bob Henson (left), Chris Burt, and other regular contributors.

Nearby

Air Quality

  Air Quality AQ Index Pollutant
Not available.

Snow Depth

Station Depth Elevation

Earthquake Activity

City Distance Mag. Time & Date
Minimum magnitude displayed is 2.5.

Coastal Water Temperatures

Place Temperature

Stations

Nearby Weather Stations

Station Location Temp. Windchill Dew Point Humidity Wind Precip. Elev Updated Type
                   

Watches & Warnings

There are currently no watches in effect.